Thunder radar more information blitzortung!


Radar de pluja more information rain snow radar


Visita la nostra xarxa de llocs de meteo:

Template documentation
and downloads

And another site



No particular awareness of the weather is required.    There are no Weather-warnings

Pagina Historial Weather Underground text

Diari Resum January 8, 2016 Unitats:  Mètric    Imperial   Tant
« Previous Dia
SegĂźent Dia »
Diari Setmana Mensual Anual Personalitzada
  Maxima: Minima: Media:
Temperatura: -17.8 °C -10.5 °C -7.8 °C
Punt de rosada: -17.8 °C -14.6 °C -13.6 °C
Humitat: Humidity % 41 % 51 %
Wind Speed: 0 km/h 0 km/h 7.6 km/h
RĂ fegues de vent: 0 km/h - -
Vent:- - SW
Pression baro: 0 hPa 34097 hPa -
Precipitacions: 0 mm    
Historical Graphs
 
 
Dades de taula per January 8, 2016
Temps Temperatura Punt de rosada Pression baro Vent Wind Speed RĂ fegues de vent Humitat Rainfall Rate (Hourly)
-17.8 °C -17.8 °C 0 hPa Calm     Humidity % 0 mm
11:06 -7.7 °C -12.8 °C 34222.3 hPa SW 18.3 km/h 18.3 km/h 55 % 0 mm
11:11 -7.6 °C -12.9 °C 34198.6 hPa SW 15 km/h 15 km/h 54 % 0 mm
11:16 -7.4 °C -12.6 °C 34198.6 hPa West 9 km/h 9 km/h 55 % 0 mm
11:21 -7.3 °C -12.4 °C 34198.6 hPa SW 9 km/h 9 km/h 55 % 0 mm
11:26 -7.3 °C -12.4 °C 34198.6 hPa WNW 6 km/h 6 km/h 55 % 0 mm
11:31 -7.2 °C -12.7 °C 34198.6 hPa West 6 km/h   53 % 0 mm
11:36 -7.1 °C -12.5 °C 34198.6 hPa ENE 3.1 km/h   53 % 0 mm
11:41 -6.8 °C -12.3 °C 34198.6 hPa Calm     53 % 0 mm
11:46 -6.7 °C -12.2 °C 34198.6 hPa SSE 9 km/h 9 km/h 53 % 0 mm
11:51 -6.6 °C -12.2 °C 34198.6 hPa SW 15 km/h 15 km/h 52 % 0 mm
11:56 -6.6 °C -12.4 °C 34198.6 hPa SW 22 km/h 22 km/h 51 % 0 mm
12:01 -6.5 °C -12.4 °C 34198.6 hPa WNW 9 km/h 9.3 km/h 50 % 0 mm
12:06 -6.4 °C -12.4 °C 34198.6 hPa West 15 km/h 15 km/h 50 % 0 mm
12:11 -6.2 °C -12.2 °C 34198.6 hPa WSW 11.9 km/h 11.9 km/h 50 % 0 mm
12:16 -6.3 °C -12.4 °C 34198.6 hPa SW 23.8 km/h 23.8 km/h 49 % 0 mm
12:21 -6.3 °C -12.4 °C 34198.6 hPa SW 23.8 km/h 23.8 km/h 49 % 0 mm
12:26 -6.3 °C -12.6 °C 34198.6 hPa WSW 20.9 km/h 20.9 km/h 48 % 0 mm
12:31 -6.2 °C -12.6 °C 34198.6 hPa SW 20.9 km/h 20.9 km/h 48 % 0 mm
12:36 -6.1 °C -12.6 °C 34198.6 hPa WSW 26.9 km/h 26.9 km/h 47 % 0 mm
12:41 -5.9 °C -12.5 °C 34164.7 hPa WSW 20.9 km/h 20.9 km/h 47 % 0 mm
12:46 -5.9 °C -12.4 °C 34164.7 hPa West 14 km/h 14 km/h 47 % 0 mm
12:51 -5.8 °C -12.4 °C 34164.7 hPa WSW 12.7 km/h 12.7 km/h 47 % 0 mm
12:56 -6 °C -12.7 °C 34164.7 hPa WSW 15 km/h 15 km/h 46 % 0 mm
13:01 -5.8 °C -12.4 °C 34164.7 hPa West 9.3 km/h 9.3 km/h 47 % 0 mm
13:06 -5.8 °C -12.5 °C 34164.7 hPa West 11.9 km/h 11.9 km/h 46 % 0 mm
13:11 -5.7 °C -12.4 °C 34130.9 hPa SW 16.6 km/h 16.6 km/h 46 % 0 mm
13:16 -5.7 °C -12.6 °C 34130.9 hPa West 12.7 km/h 12.7 km/h 45 % 0 mm
13:21 -5.7 °C -12.8 °C 34130.9 hPa WSW 26.9 km/h 26.9 km/h 44 % 0 mm
13:26 -5.7 °C -12.8 °C 34130.9 hPa WSW 15 km/h 15.6 km/h 44 % 0 mm
13:31 -5.6 °C -12.7 °C 34130.9 hPa SSW 16.6 km/h 16.6 km/h 44 % 0 mm
13:36 -5.5 °C -12.8 °C 34130.9 hPa WSW 18.3 km/h 18.3 km/h 43 % 0 mm
13:41 -5.4 °C -12.6 °C 34130.9 hPa WNW 17.9 km/h 17.9 km/h 44 % 0 mm
13:46 -5.4 °C -12.7 °C 34130.9 hPa SW 16.1 km/h 16.1 km/h 43 % 0 mm
13:51 -5.3 °C -12.7 °C 34130.9 hPa SW 20.9 km/h 20.9 km/h 43 % 0 mm
13:56 -5.4 °C -12.7 °C 34130.9 hPa West 11.9 km/h 11.9 km/h 43 % 0 mm
14:01 -5.4 °C -12.9 °C 34130.9 hPa West 11.9 km/h 11.9 km/h 42 % 0 mm
14:06 -5.5 °C -13 °C 34130.9 hPa West 11.9 km/h 11.9 km/h 42 % 0 mm
14:16 -5.3 °C -12.9 °C 34130.9 hPa West 11.9 km/h 11.9 km/h 42 % 0 mm
14:21 -5.3 °C -12.7 °C 34130.9 hPa West 11.9 km/h 11.9 km/h 43 % 0 mm
14:26 -5.2 °C -12.6 °C 34097 hPa ESE 11.9 km/h 11.9 km/h 43 % 0 mm
14:31 -5.3 °C -12.9 °C 34097 hPa ESE 9 km/h 9 km/h 42 % 0 mm
14:36 -5.4 °C -12.9 °C 34097 hPa ESE 9 km/h 9 km/h 42 % 0 mm
14:41 -5.4 °C -12.9 °C 34130.9 hPa ESE 9 km/h 9 km/h 42 % 0 mm
14:46 -5.4 °C -12.7 °C 34130.9 hPa West 6 km/h 9.3 km/h 43 % 0 mm
14:51 -5.3 °C -12.9 °C 34130.9 hPa West 6 km/h 9.3 km/h 42 % 0 mm
14:56 -5.3 °C -12.9 °C 34130.9 hPa WNW 19.6 km/h 19.6 km/h 42 % 0 mm
15:01 -5.3 °C -12.8 °C 34130.9 hPa WNW 20.9 km/h 20.9 km/h 42 % 0 mm
15:06 -5.3 °C -12.9 °C 34130.9 hPa SW 20.9 km/h 20.9 km/h 42 % 0 mm
15:11 -5.3 °C -12.9 °C 34130.9 hPa West 9 km/h 9 km/h 42 % 0 mm
15:16 -5.3 °C -12.8 °C 34130.9 hPa West 20.9 km/h 20.9 km/h 42 % 0 mm
15:22 -5.3 °C -13 °C 34130.9 hPa West 6.8 km/h 10.3 km/h 41 % 0 mm
15:27 -5.4 °C -13.2 °C 34130.9 hPa WSW 9.8 km/h 9.8 km/h 41 % 0 mm
15:32 -5.4 °C -13.1 °C 34130.9 hPa SSW 9 km/h 9 km/h 41 % 0 mm
15:37 -5.4 °C -13.1 °C 34130.9 hPa SW 12.7 km/h 12.7 km/h 41 % 0 mm
15:42 -5.4 °C -13.1 °C 34097 hPa SSW 12.7 km/h 12.7 km/h 41 % 0 mm
15:47 -5.3 °C -13.1 °C 34097 hPa SSW 11.9 km/h 11.9 km/h 41 % 0 mm
15:52 -5.3 °C -13.1 °C 34097 hPa SSE 10.3 km/h 10.3 km/h 41 % 0 mm
15:57 -5.3 °C -13.1 °C 34130.9 hPa SW 6 km/h 8.5 km/h 41 % 0 mm
16:02 -5.5 °C -13.2 °C 34130.9 hPa West 6.3 km/h 6.3 km/h 41 % 0 mm
16:07 -5.8 °C -13.4 °C 34130.9 hPa SSW 9 km/h 9 km/h 41 % 0 mm
16:12 -6 °C -13.7 °C 34130.9 hPa WSW 3.1 km/h 6.8 km/h 41 % 0 mm
16:17 -6.1 °C -13.8 °C 34130.9 hPa WNW 11.9 km/h 11.9 km/h 41 % 0 mm
16:22 -6.3 °C -13.7 °C 34130.9 hPa ESE 6 km/h 6 km/h 42 % 0 mm
16:27 -6.4 °C -13.7 °C 34130.9 hPa ESE 9 km/h 9 km/h 43 % 0 mm
16:32 -6.5 °C -13.7 °C 34130.9 hPa WNW 9.3 km/h 9.3 km/h 43 % 0 mm
16:37 -6.6 °C -13.8 °C 34130.9 hPa WNW 9 km/h 9 km/h 43 % 0 mm
16:42 -6.7 °C -13.7 °C 34130.9 hPa NE 3.7 km/h 3.7 km/h 44 % 0 mm
16:47 -6.8 °C -13.8 °C 34130.9 hPa ENE 5.1 km/h 5.1 km/h 44 % 0 mm
16:52 -6.9 °C -13.9 °C 34130.9 hPa West 3.7 km/h 3.7 km/h 44 % 0 mm
16:57 -7 °C -13.8 °C 34130.9 hPa West 6 km/h 6.3 km/h 45 % 0 mm
17:02 -7.1 °C -13.8 °C 34130.9 hPa NW 9 km/h 9 km/h 45 % 0 mm
17:07 -7.2 °C -13.9 °C 34130.9 hPa NNW 6 km/h 6 km/h 45 % 0 mm
17:12 -7.2 °C -13.8 °C 34097 hPa North 3.1 km/h 3.1 km/h 46 % 0 mm
17:17 -7.3 °C -13.8 °C 34097 hPa North 9 km/h 9 km/h 47 % 0 mm
17:22 -7.4 °C -13.8 °C 34097 hPa NW 3.7 km/h 3.7 km/h 47 % 0 mm
17:27 -7.5 °C -13.7 °C 34097 hPa WSW 4.2 km/h 4.2 km/h 48 % 0 mm
17:32 -7.6 °C -13.8 °C 34097 hPa SSW 3.1 km/h 3.1 km/h 48 % 0 mm
17:37 -7.7 °C -13.9 °C 34097 hPa WNW 6 km/h 6 km/h 48 % 0 mm
17:42 -7.7 °C -13.9 °C 34097 hPa WSW 3.1 km/h 3.1 km/h 48 % 0 mm
17:47 -7.8 °C -13.8 °C 34097 hPa WSW 3.1 km/h 3.1 km/h 49 % 0 mm
17:52 -7.9 °C -13.9 °C 34097 hPa WSW 3.1 km/h 3.1 km/h 49 % 0 mm
17:57 -7.9 °C -14 °C 34130.9 hPa NW 3.1 km/h 3.1 km/h 49 % 0 mm
18:02 -8 °C -14 °C 34130.9 hPa Calm     49 % 0 mm
18:07 -8.1 °C -13.9 °C 34130.9 hPa SW 3.1 km/h 3.1 km/h 50 % 0 mm
18:12 -8.1 °C -13.9 °C 34130.9 hPa SW 9.8 km/h 9.8 km/h 50 % 0 mm
18:17 -8.2 °C -14 °C 34130.9 hPa SW 9.8 km/h 9.8 km/h 50 % 0 mm
18:22 -8.2 °C -14.1 °C 34130.9 hPa ENE 6 km/h   50 % 0 mm
18:27 -8.3 °C -14.1 °C 34130.9 hPa SSW 3.7 km/h 5.6 km/h 50 % 0 mm
18:32 -8.3 °C -14 °C 34130.9 hPa SW 3.1 km/h   51 % 0 mm
18:37 -8.4 °C -13.9 °C 34130.9 hPa SW 3.1 km/h 3.1 km/h 52 % 0 mm
18:42 -8.4 °C -13.9 °C 34130.9 hPa Calm   5.6 km/h 52 % 0 mm
18:47 -8.5 °C -14 °C 34130.9 hPa Calm     52 % 0 mm
18:52 -8.6 °C -14.1 °C 34130.9 hPa SW 6 km/h 6 km/h 52 % 0 mm
18:57 -8.6 °C -14.1 °C 34097 hPa SW 3.1 km/h 3.7 km/h 52 % 0 mm
19:02 -8.7 °C -14 °C 34097 hPa SW 3.1 km/h 3.7 km/h 53 % 0 mm
19:07 -8.7 °C -14 °C 34097 hPa WSW 4.2 km/h 5.1 km/h 53 % 0 mm
19:12 -8.8 °C -14.1 °C 34130.9 hPa WSW 6.3 km/h 6.3 km/h 53 % 0 mm
19:17 -8.8 °C -14.2 °C 34130.9 hPa SW 6 km/h 6 km/h 53 % 0 mm
19:22 -8.9 °C -14.1 °C 34130.9 hPa Calm     54 % 0 mm
19:27 -8.9 °C -14.1 °C 34130.9 hPa WSW 6 km/h   54 % 0 mm
19:32 -9.1 °C -14.2 °C 34130.9 hPa WSW 6.3 km/h 6.3 km/h 54 % 0 mm
19:37 -9.1 °C -14.3 °C 34130.9 hPa SW 6 km/h 6 km/h 54 % 0 mm
19:42 -9.1 °C -14.3 °C 34130.9 hPa SW 3.7 km/h 3.7 km/h 54 % 0 mm
19:47 -9.2 °C -14.2 °C 34130.9 hPa Calm     55 % 0 mm
19:52 -9.2 °C -14.2 °C 34130.9 hPa SW 3.1 km/h 3.1 km/h 55 % 0 mm
19:57 -9.3 °C -14.3 °C 34130.9 hPa SW 3.1 km/h 3.1 km/h 55 % 0 mm
20:02 -9.3 °C -14.3 °C 34130.9 hPa SW 3.1 km/h 3.1 km/h 55 % 0 mm
20:07 -9.3 °C -14.3 °C 34130.9 hPa SW 3.1 km/h 3.1 km/h 55 % 0 mm
20:12 -9.3 °C -14.3 °C 34130.9 hPa SW 6 km/h 6 km/h 55 % 0 mm
20:17 -9.3 °C -14.2 °C 34130.9 hPa WSW 6 km/h 6 km/h 56 % 0 mm
20:22 -9.4 °C -14.3 °C 34130.9 hPa Calm     56 % 0 mm
20:27 -9.5 °C -14.2 °C 34097 hPa Calm     57 % 0 mm
20:32 -9.6 °C -14.4 °C 34097 hPa Calm     56 % 0 mm
20:37 -9.7 °C -14.3 °C 34097 hPa Calm     57 % 0 mm
20:42 -9.8 °C -14.5 °C 34130.9 hPa Calm     57 % 0 mm
20:47 -9.9 °C -14.4 °C 34130.9 hPa Calm     58 % 0 mm
20:52 -9.9 °C -14.3 °C 34130.9 hPa Calm     59 % 0 mm
20:57 -9.9 °C -14.3 °C 34130.9 hPa Calm     59 % 0 mm
21:02 -9.9 °C -14.3 °C 34130.9 hPa Calm     59 % 0 mm
21:07 -9.9 °C -14.3 °C 34130.9 hPa Calm     59 % 0 mm
21:13 -10.2 °C -14.6 °C 34130.9 hPa Calm     59 % 0 mm
21:18 -10.2 °C -14.4 °C 34130.9 hPa Calm     60 % 0 mm
21:23 -10.2 °C -14.4 °C 34130.9 hPa SSW 10.3 km/h 10.3 km/h 60 % 0 mm
21:28 -10.2 °C -14.3 °C 34130.9 hPa SW 9.8 km/h 9.8 km/h 61 % 0 mm
21:33 -10.1 °C -14.1 °C 34130.9 hPa SW 9.8 km/h 9.8 km/h 62 % 0 mm
21:38 -10.1 °C -14.1 °C 34130.9 hPa SW 9.8 km/h 9.8 km/h 62 % 0 mm
21:43 -10.1 °C -14.1 °C 34130.9 hPa SW 9.8 km/h 9.8 km/h 62 % 0 mm
21:48 -10 °C -14 °C 34130.9 hPa WNW 9 km/h 9 km/h 62 % 0 mm
21:53 -9.8 °C -13.8 °C 34130.9 hPa WSW 6.8 km/h 6.8 km/h 62 % 0 mm
21:58 -9.7 °C -13.7 °C 34130.9 hPa WSW 6 km/h 6 km/h 62 % 0 mm
22:03 -9.7 °C -13.8 °C 34130.9 hPa WSW 6 km/h 6 km/h 61 % 0 mm
22:08 -9.7 °C -13.8 °C 34130.9 hPa SW 6.3 km/h 7.6 km/h 61 % 0 mm
22:13 -9.8 °C -13.9 °C 34130.9 hPa WSW 3.1 km/h   61 % 0 mm
22:18 -9.7 °C -13.8 °C 34130.9 hPa West 6 km/h 6 km/h 61 % 0 mm
22:23 -9.7 °C -13.8 °C 34130.9 hPa Calm     61 % 0 mm
22:28 -9.7 °C -13.8 °C 34130.9 hPa Calm     61 % 0 mm
22:33 -9.8 °C -13.9 °C 34130.9 hPa Calm     61 % 0 mm
22:38 -9.9 °C -14 °C 34130.9 hPa Calm     61 % 0 mm
22:43 -10.1 °C -14.2 °C 34130.9 hPa Calm     61 % 0 mm
22:48 -10.3 °C -14.4 °C 34130.9 hPa Calm   3.1 km/h 61 % 0 mm
22:53 -10.4 °C -14.5 °C 34130.9 hPa Calm   3.1 km/h 61 % 0 mm
22:58 -10.4 °C -14.3 °C 34130.9 hPa Calm   3.1 km/h 62 % 0 mm
23:03 -10.4 °C -14.4 °C 34130.9 hPa WSW 6 km/h 6 km/h 62 % 0 mm
23:08 -10.4 °C -14.4 °C 34130.9 hPa WSW 6 km/h 6 km/h 62 % 0 mm
23:13 -10.5 °C -14.4 °C 34130.9 hPa WSW 6 km/h 6 km/h 62 % 0 mm
23:18 -10.4 °C -14.3 °C 34130.9 hPa WSW 3.1 km/h   62 % 0 mm
23:23 -10.3 °C -14.3 °C 34130.9 hPa Calm     62 % 0 mm
23:28 -10.2 °C -14.1 °C 34097 hPa Calm     62 % 0 mm
23:33 -10.1 °C -14.1 °C 34097 hPa Calm     62 % 0 mm
23:38 -10 °C -14.1 °C 34097 hPa Calm     61 % 0 mm
23:43 -10 °C -14.1 °C 34097 hPa Calm     61 % 0 mm
23:48 -10.1 °C -14.2 °C 34097 hPa Calm     61 % 0 mm
Meteo Sesrovires
Elogis d' Weather Underground - 2 mb

Guio original per  Jim McMurry - jmcmurry@mwt.net Adaptat per a la plantilla per  Wim van der Kuil - Leuven-Template.eu

Trobareu la nostra informacio del temps tambe a:

Weather Underground

AWEKAS